createdAt,value
2019-05-05T00:00:47.463Z,77.30
2019-05-05T00:03:34.265Z,77.60
2019-05-05T00:06:05.277Z,78.70
2019-05-05T00:08:35.129Z,78.30
2019-05-05T00:11:22.003Z,79.20
2019-05-05T00:14:00.950Z,78.80
2019-05-05T00:16:49.132Z,78.50
2019-05-05T00:19:29.814Z,77.90
2019-05-05T00:21:47.875Z,77.70
2019-05-05T00:24:16.443Z,78.30
2019-05-05T00:26:46.084Z,78.90
2019-05-05T00:29:14.947Z,78.60
2019-05-05T00:31:45.283Z,79.20
2019-05-05T00:34:15.333Z,78.90
2019-05-05T00:36:44.619Z,79.00
2019-05-05T00:39:14.942Z,78.70
2019-05-05T00:41:44.914Z,78.40
2019-05-05T00:44:15.353Z,78.00
2019-05-05T00:46:48.258Z,79.30
2019-05-05T00:49:16.706Z,78.50
2019-05-05T00:51:45.156Z,78.70
2019-05-05T00:54:14.865Z,78.40
2019-05-05T00:56:45.024Z,77.90
2019-05-05T00:59:15.328Z,77.10
2019-05-05T01:02:00.595Z,77.30
2019-05-05T01:04:35.203Z,78.00
2019-05-05T01:07:04.947Z,77.50
2019-05-05T01:09:34.392Z,77.80
2019-05-05T01:12:04.394Z,78.30
2019-05-05T01:14:34.252Z,78.30
2019-05-05T01:17:05.152Z,78.00
2019-05-05T01:19:34.978Z,77.20
2019-05-05T01:22:04.948Z,76.70
2019-05-05T01:24:34.226Z,76.40
2019-05-05T01:27:04.266Z,76.10
2019-05-05T01:29:34.633Z,76.50
2019-05-05T01:32:05.099Z,75.70
2019-05-05T01:34:35.396Z,75.90
2019-05-05T01:37:11.359Z,76.30
2019-05-05T01:39:54.218Z,77.00
2019-05-05T01:42:24.793Z,77.60
2019-05-05T01:44:55.138Z,77.00
2019-05-05T01:47:25.275Z,77.50
2019-05-05T01:49:54.438Z,76.40
2019-05-05T01:52:25.271Z,75.40
2019-05-05T01:54:54.766Z,74.80
2019-05-05T01:57:25.172Z,75.50
2019-05-05T01:59:55.202Z,76.20
2019-05-05T02:02:25.154Z,75.20
2019-05-05T02:04:55.296Z,74.80
2019-05-05T02:07:25.012Z,75.50
2019-05-05T02:09:55.437Z,75.10
2019-05-05T02:12:24.647Z,74.50
2019-05-05T02:14:55.170Z,74.60
2019-05-05T02:17:24.706Z,75.20
2019-05-05T02:19:54.968Z,75.40
2019-05-05T02:22:25.241Z,75.40
2019-05-05T02:24:55.070Z,75.10
2019-05-05T02:27:25.161Z,75.30
2019-05-05T02:29:58.299Z,74.60
2019-05-05T02:32:37.288Z,74.60
2019-05-05T02:35:09.226Z,74.40
2019-05-05T02:37:37.718Z,74.50
2019-05-05T02:40:15.658Z,74.30
2019-05-05T02:42:45.596Z,74.30
2019-05-05T02:45:26.059Z,75.40
2019-05-05T02:47:57.365Z,75.30
2019-05-05T02:50:46.745Z,75.30
2019-05-05T02:53:03.879Z,75.70
2019-05-05T02:55:35.320Z,75.90
2019-05-05T02:58:04.198Z,75.60
2019-05-05T03:00:34.911Z,75.50
2019-05-05T03:03:05.051Z,75.30
2019-05-05T03:05:34.151Z,74.70
2019-05-05T03:08:04.840Z,75.00
2019-05-05T03:10:34.035Z,76.10
2019-05-05T03:13:04.888Z,76.50
2019-05-05T03:15:54.959Z,77.00
2019-05-05T03:18:24.664Z,76.70
2019-05-05T03:21:03.776Z,76.00
2019-05-05T03:23:24.731Z,76.40
2019-05-05T03:25:54.562Z,76.50
2019-05-05T03:28:25.550Z,76.10
2019-05-05T03:30:55.801Z,76.10
2019-05-05T03:33:25.131Z,75.80
2019-05-05T03:35:54.224Z,75.30
2019-05-05T03:38:24.746Z,75.40
2019-05-05T03:40:54.900Z,76.50
2019-05-05T03:43:25.160Z,76.10
2019-05-05T03:45:58.370Z,75.70
2019-05-05T03:48:26.876Z,75.20
2019-05-05T03:50:55.431Z,74.60
2019-05-05T03:53:24.706Z,74.40
2019-05-05T03:55:54.599Z,73.60
2019-05-05T03:58:24.086Z,73.40
2019-05-05T04:00:55.786Z,73.20
2019-05-05T04:03:24.225Z,72.80
2019-05-05T04:06:00.069Z,73.10
2019-05-05T04:08:28.950Z,73.20
2019-05-05T04:10:57.538Z,73.50
2019-05-05T04:13:27.123Z,74.40
2019-05-05T04:16:09.646Z,73.40
2019-05-05T04:18:43.563Z,73.90
2019-05-05T04:21:13.925Z,74.00
2019-05-05T04:23:44.061Z,72.50
2019-05-05T04:26:14.243Z,72.30
2019-05-05T04:28:43.658Z,72.80
2019-05-05T04:31:13.580Z,72.80
2019-05-05T04:33:44.344Z,73.30
2019-05-05T04:36:14.321Z,73.20
2019-05-05T04:38:43.978Z,73.60
2019-05-05T04:41:14.086Z,73.70
2019-05-05T04:43:44.192Z,73.40
2019-05-05T04:46:13.991Z,72.20
2019-05-05T04:48:50.486Z,71.40
2019-05-05T04:51:20.547Z,70.70
2019-05-05T04:54:07.002Z,71.30
2019-05-05T04:56:35.688Z,70.90
2019-05-05T04:59:04.453Z,69.70
2019-05-05T05:01:34.822Z,68.10
2019-05-05T05:04:07.843Z,67.70
2019-05-05T05:06:37.899Z,68.20
2019-05-05T05:09:07.159Z,68.20
2019-05-05T05:11:35.600Z,69.00
2019-05-05T05:14:04.098Z,68.90
2019-05-05T05:16:32.530Z,67.50
2019-05-05T05:19:00.947Z,65.10
2019-05-05T05:21:29.386Z,66.30
2019-05-05T05:23:57.805Z,66.10
2019-05-05T05:26:26.615Z,66.00
2019-05-05T05:28:55.030Z,65.30
2019-05-05T05:31:24.497Z,64.70
2019-05-05T05:33:54.810Z,64.40
2019-05-05T05:36:24.741Z,63.00
2019-05-05T05:38:55.020Z,64.40
2019-05-05T05:41:43.562Z,64.60
2019-05-05T05:44:17.859Z,63.80
2019-05-05T05:47:00.163Z,64.50
2019-05-05T05:49:39.127Z,63.70
2019-05-05T05:52:15.820Z,64.20
2019-05-05T05:54:37.778Z,63.00
2019-05-05T05:57:06.307Z,63.80
2019-05-05T05:59:34.769Z,64.80
2019-05-05T06:02:11.507Z,63.70
2019-05-05T06:04:34.056Z,64.00
2019-05-05T06:07:04.081Z,64.30
2019-05-05T06:09:34.452Z,64.60
2019-05-05T06:12:03.588Z,63.60
2019-05-05T06:14:34.149Z,62.20
2019-05-05T06:17:04.227Z,63.20
2019-05-05T06:19:33.771Z,62.60
2019-05-05T06:22:03.566Z,62.80
2019-05-05T06:24:34.409Z,63.70
2019-05-05T06:27:03.732Z,63.80
2019-05-05T06:29:34.332Z,63.50
2019-05-05T06:32:04.024Z,62.60
2019-05-05T06:34:33.819Z,62.80
2019-05-05T06:37:04.250Z,62.60
2019-05-05T06:39:33.484Z,62.60
2019-05-05T06:42:06.680Z,62.30
2019-05-05T06:44:39.691Z,62.80
2019-05-05T06:47:09.849Z,62.80
2019-05-05T06:49:38.275Z,62.60
2019-05-05T06:52:06.730Z,62.40
2019-05-05T06:54:35.230Z,62.80
2019-05-05T06:57:04.492Z,63.20
2019-05-05T06:59:34.900Z,63.00
2019-05-05T07:02:04.246Z,63.50
2019-05-05T07:04:33.990Z,63.70
2019-05-05T07:07:04.877Z,64.10
2019-05-05T07:09:33.647Z,64.10
2019-05-05T07:12:04.302Z,63.80
2019-05-05T07:14:34.000Z,63.40
2019-05-05T07:17:04.911Z,62.90
2019-05-05T07:19:34.489Z,63.00
2019-05-05T07:22:04.096Z,63.00
2019-05-05T07:24:34.517Z,63.50
2019-05-05T07:27:04.730Z,63.40
2019-05-05T07:29:34.252Z,61.70
2019-05-05T07:32:03.959Z,62.40
2019-05-05T07:34:37.138Z,62.40
2019-05-05T07:37:05.556Z,62.50
2019-05-05T07:39:34.152Z,63.20
2019-05-05T07:42:04.436Z,62.70
2019-05-05T07:44:33.902Z,62.80
2019-05-05T07:47:03.635Z,63.30
2019-05-05T07:49:33.584Z,62.10
2019-05-05T07:52:04.045Z,62.90
2019-05-05T07:54:34.189Z,62.60
2019-05-05T07:57:04.210Z,62.20
2019-05-05T07:59:34.048Z,62.30
2019-05-05T08:02:04.029Z,62.50
2019-05-05T08:04:34.570Z,61.30
2019-05-05T08:07:04.060Z,61.60
2019-05-05T08:09:33.868Z,61.70
2019-05-05T08:12:04.332Z,61.70
2019-05-05T08:14:33.766Z,61.90
2019-05-05T08:17:04.245Z,61.50
2019-05-05T08:19:40.175Z,61.30
2019-05-05T08:22:08.677Z,61.20
2019-05-05T08:24:56.612Z,61.30
2019-05-05T08:27:29.270Z,61.00
2019-05-05T08:30:02.058Z,61.50
2019-05-05T08:32:35.029Z,61.50
2019-05-05T08:35:01.410Z,61.30
2019-05-05T08:37:29.886Z,60.20
2019-05-05T08:39:58.319Z,60.20
2019-05-05T08:42:26.739Z,60.40
2019-05-05T08:44:55.182Z,60.50
2019-05-05T08:47:24.570Z,60.00
2019-05-05T08:49:53.887Z,60.40
2019-05-05T08:52:23.820Z,60.30
2019-05-05T08:54:54.187Z,60.60
2019-05-05T08:57:23.609Z,60.60
2019-05-05T08:59:54.318Z,60.80
2019-05-05T09:02:23.939Z,25.80
2019-05-05T09:04:53.777Z,59.90
2019-05-05T09:07:24.337Z,24.60
2019-05-05T09:09:54.483Z,59.40
2019-05-05T09:12:23.606Z,59.40
2019-05-05T09:14:53.913Z,59.50
2019-05-05T09:17:24.335Z,59.80
2019-05-05T09:19:53.738Z,60.20
2019-05-05T09:22:24.400Z,24.80
2019-05-05T09:24:54.067Z,25.00
2019-05-05T09:27:44.156Z,24.10
2019-05-05T09:30:14.766Z,58.00
2019-05-05T09:32:43.919Z,59.50
2019-05-05T09:35:13.887Z,58.80
2019-05-05T09:37:44.325Z,22.60
2019-05-05T09:40:13.866Z,22.70
2019-05-05T09:42:44.291Z,22.80
2019-05-05T09:45:14.001Z,21.90
2019-05-05T09:47:44.852Z,58.20
2019-05-05T09:50:14.383Z,57.00
2019-05-05T09:52:44.335Z,57.20
2019-05-05T09:55:13.839Z,58.10
2019-05-05T09:57:43.771Z,59.30
2019-05-05T10:00:14.198Z,57.20
2019-05-05T10:02:44.131Z,59.40
2019-05-05T10:05:14.470Z,57.10
2019-05-05T10:07:44.055Z,56.30
2019-05-05T10:10:13.794Z,57.10
2019-05-05T10:12:44.368Z,57.80
2019-05-05T10:15:13.897Z,57.70
2019-05-05T10:17:43.571Z,58.20
2019-05-05T10:20:14.394Z,22.60
2019-05-05T10:22:43.810Z,23.40
2019-05-05T10:25:34.306Z,22.50
2019-05-05T10:28:04.273Z,22.90
2019-05-05T10:30:34.458Z,22.50
2019-05-05T10:33:03.775Z,22.80
2019-05-05T10:35:34.495Z,57.00
2019-05-05T10:38:03.052Z,58.40
2019-05-05T10:40:34.829Z,59.30
2019-05-05T10:43:04.458Z,59.10
2019-05-05T10:45:33.660Z,60.20
2019-05-05T10:48:04.071Z,60.30
2019-05-05T10:50:34.150Z,60.50
2019-05-05T10:53:04.598Z,60.30
2019-05-05T10:55:34.583Z,60.60
2019-05-05T10:58:03.798Z,60.10
2019-05-05T11:00:44.402Z,60.70
2019-05-05T11:03:14.871Z,60.30
2019-05-05T11:05:44.791Z,25.00
2019-05-05T11:08:13.769Z,59.00
2019-05-05T11:10:44.565Z,23.90
2019-05-05T11:13:12.762Z,24.00
2019-05-05T11:15:41.280Z,24.20
2019-05-05T11:18:10.250Z,58.30
2019-05-05T11:20:38.731Z,58.60
2019-05-05T11:23:07.225Z,58.30
2019-05-05T11:25:35.764Z,57.20
2019-05-05T11:28:05.971Z,58.20
2019-05-05T11:30:39.608Z,21.70
2019-05-05T11:33:23.750Z,57.80
2019-05-05T11:35:54.122Z,58.80
2019-05-05T11:38:24.557Z,56.70
2019-05-05T11:40:54.655Z,57.30
2019-05-05T11:43:24.709Z,56.90
2019-05-05T11:45:54.448Z,57.10
2019-05-05T11:48:24.012Z,56.90
2019-05-05T11:50:54.024Z,56.80
2019-05-05T11:53:24.906Z,21.70
2019-05-05T11:55:54.973Z,21.00
2019-05-05T11:58:24.830Z,22.00
2019-05-05T12:00:54.453Z,22.10
2019-05-05T12:03:23.179Z,22.50
2019-05-05T12:05:51.594Z,22.00
2019-05-05T12:08:20.052Z,22.20
2019-05-05T12:10:59.086Z,21.50
2019-05-05T12:13:27.597Z,21.10
2019-05-05T12:16:00.562Z,21.40
2019-05-05T12:18:29.251Z,20.50
2019-05-05T12:20:57.734Z,21.40
2019-05-05T12:23:26.183Z,56.80
2019-05-05T12:26:08.747Z,56.60
2019-05-05T12:28:44.815Z,58.60
2019-05-05T12:31:26.875Z,59.30
2019-05-05T12:33:55.315Z,59.00
2019-05-05T12:36:24.208Z,57.80
2019-05-05T12:38:54.562Z,60.10
2019-05-05T12:41:23.883Z,58.40
2019-05-05T12:43:54.878Z,58.80
2019-05-05T12:46:33.809Z,59.80
2019-05-05T12:49:04.760Z,59.20
2019-05-05T12:51:34.289Z,25.90
2019-05-05T12:54:04.489Z,24.10
2019-05-05T12:56:34.044Z,23.20
2019-05-05T12:59:04.351Z,24.60
2019-05-05T13:01:44.130Z,22.30
2019-05-05T13:04:14.132Z,22.80
2019-05-05T13:06:44.858Z,22.50
2019-05-05T13:09:13.608Z,23.50
2019-05-05T13:11:43.646Z,22.70
2019-05-05T13:14:14.253Z,22.90
2019-05-05T13:16:52.821Z,21.90
2019-05-05T13:19:14.831Z,22.20
2019-05-05T13:22:03.691Z,22.50
2019-05-05T13:24:48.862Z,22.60
2019-05-05T13:27:19.709Z,22.40
2019-05-05T13:29:48.456Z,21.20
2019-05-05T13:32:16.887Z,21.80
2019-05-05T13:34:45.347Z,21.70
2019-05-05T13:37:14.176Z,21.80
2019-05-05T13:39:44.576Z,22.60
2019-05-05T13:42:13.841Z,21.60
2019-05-05T13:44:49.977Z,21.70
2019-05-05T13:47:18.510Z,21.40
2019-05-05T13:49:47.019Z,21.70
2019-05-05T13:52:15.459Z,20.60
2019-05-05T13:54:43.969Z,19.40
2019-05-05T13:57:14.248Z,19.30
2019-05-05T13:59:44.489Z,19.30
2019-05-05T14:02:13.790Z,18.70
2019-05-05T14:04:43.815Z,19.50
2019-05-05T14:07:12.576Z,20.10
2019-05-05T14:09:41.007Z,18.90
2019-05-05T14:12:09.528Z,18.70
2019-05-05T14:14:37.951Z,18.10
2019-05-05T14:17:06.425Z,17.90
2019-05-05T14:19:34.841Z,18.10
2019-05-05T14:22:04.507Z,18.20
2019-05-05T14:24:40.750Z,17.80
2019-05-05T14:27:09.187Z,18.80
2019-05-05T14:29:39.251Z,18.80
2019-05-05T14:32:09.034Z,18.00
2019-05-05T14:34:39.133Z,19.30
2019-05-05T14:37:25.305Z,18.50
2019-05-05T14:39:54.596Z,19.40
2019-05-05T14:42:23.562Z,20.10
2019-05-05T14:44:54.387Z,20.30
2019-05-05T14:47:24.266Z,19.40
2019-05-05T14:49:54.042Z,20.50
2019-05-05T14:52:24.623Z,21.50
2019-05-05T14:54:54.403Z,20.40
2019-05-05T14:57:24.917Z,20.10
2019-05-05T14:59:54.027Z,20.80
2019-05-05T15:02:24.331Z,19.70
2019-05-05T15:04:53.998Z,20.70
2019-05-05T15:07:36.775Z,20.10
2019-05-05T15:10:20.339Z,20.40
2019-05-05T15:12:50.440Z,20.80
2019-05-05T15:15:19.032Z,20.70
2019-05-05T15:17:47.491Z,20.00
2019-05-05T15:20:16.119Z,20.40
2019-05-05T15:22:44.659Z,20.30
2019-05-05T15:25:13.364Z,20.20
2019-05-05T15:27:41.833Z,19.70
2019-05-05T15:30:10.587Z,18.70
2019-05-05T15:32:39.101Z,19.10
2019-05-05T15:35:07.881Z,19.50
2019-05-05T15:37:36.478Z,19.00
2019-05-05T15:40:05.658Z,18.70
2019-05-05T15:42:34.209Z,18.70
2019-05-05T15:45:04.036Z,18.80
2019-05-05T15:47:34.347Z,18.30
2019-05-05T15:50:05.233Z,18.30
2019-05-05T15:52:35.203Z,17.10
2019-05-05T15:55:06.148Z,17.90
2019-05-05T15:57:34.583Z,17.60
2019-05-05T16:00:04.962Z,17.60
2019-05-05T16:02:35.907Z,17.50
2019-05-05T16:05:07.057Z,17.10
2019-05-05T16:07:35.495Z,17.00
2019-05-05T16:10:05.463Z,17.20
2019-05-05T16:12:39.199Z,17.20
2019-05-05T16:15:13.911Z,17.10
2019-05-05T16:17:53.399Z,16.90
2019-05-05T16:20:35.963Z,16.30
2019-05-05T16:23:22.811Z,16.00
2019-05-05T16:25:51.286Z,16.30
2019-05-05T16:28:19.696Z,16.50
2019-05-05T16:30:48.240Z,16.70
2019-05-05T16:33:16.678Z,16.60
2019-05-05T16:35:45.154Z,16.20
2019-05-05T16:38:14.925Z,15.90
2019-05-05T16:40:44.507Z,16.30
2019-05-05T16:43:14.044Z,16.80
2019-05-05T16:45:44.453Z,16.70
2019-05-05T16:48:13.288Z,16.70
2019-05-05T16:50:44.146Z,16.50
2019-05-05T16:53:14.085Z,16.40
2019-05-05T16:55:44.868Z,16.70
2019-05-05T16:58:14.011Z,16.80
2019-05-05T17:00:44.148Z,17.00
2019-05-05T17:03:13.458Z,17.20
2019-05-05T17:05:44.052Z,17.90
2019-05-05T17:08:13.933Z,17.20
2019-05-05T17:10:43.561Z,17.50
2019-05-05T17:13:30.296Z,17.90
2019-05-05T17:16:07.401Z,17.70
2019-05-05T17:18:37.447Z,16.00
2019-05-05T17:21:14.267Z,16.50
2019-05-05T17:23:43.475Z,16.50
2019-05-05T17:26:14.134Z,16.40
2019-05-05T17:28:44.236Z,16.70
2019-05-05T17:31:12.887Z,16.00
2019-05-05T17:33:41.571Z,16.00
2019-05-05T17:36:10.007Z,15.30
2019-05-05T17:38:38.543Z,15.60
2019-05-05T17:41:14.650Z,15.70
2019-05-05T17:43:49.227Z,15.80
2019-05-05T17:46:37.679Z,15.80
2019-05-05T17:49:22.360Z,49.30
2019-05-05T17:51:54.610Z,49.30
2019-05-05T17:54:34.109Z,49.50
2019-05-05T17:57:03.504Z,49.90
2019-05-05T17:59:33.709Z,50.50
2019-05-05T18:02:04.509Z,50.90
2019-05-05T18:04:33.775Z,51.70
2019-05-05T18:07:09.717Z,51.00
2019-05-05T18:09:56.671Z,51.80
2019-05-05T18:12:45.165Z,51.60
2019-05-05T18:15:34.005Z,51.50
2019-05-05T18:18:04.255Z,51.60
2019-05-05T18:20:34.106Z,52.00
2019-05-05T18:23:02.848Z,51.20
2019-05-05T18:25:31.310Z,52.20
2019-05-05T18:28:12.798Z,52.30
2019-05-05T18:30:30.114Z,52.90
2019-05-05T18:32:58.644Z,53.50
2019-05-05T18:35:27.203Z,54.00
2019-05-05T18:37:55.627Z,54.60
2019-05-05T18:40:24.177Z,54.90
2019-05-05T18:42:54.345Z,55.80
2019-05-05T18:45:23.775Z,55.10
2019-05-05T18:47:53.820Z,55.10
2019-05-05T18:50:24.344Z,55.10
2019-05-05T18:52:53.851Z,55.00
2019-05-05T18:55:22.487Z,55.20
2019-05-05T18:57:51.072Z,55.80
2019-05-05T19:00:24.589Z,55.30
2019-05-05T19:03:00.846Z,55.60
2019-05-05T19:05:40.567Z,55.50
2019-05-05T19:08:14.296Z,56.10
2019-05-05T19:10:43.384Z,56.40
2019-05-05T19:13:13.631Z,55.60
2019-05-05T19:15:42.357Z,56.10
2019-05-05T19:18:10.785Z,56.00
2019-05-05T19:20:54.196Z,56.20
2019-05-05T19:23:22.733Z,56.10
2019-05-05T19:25:51.191Z,56.50
2019-05-05T19:28:19.607Z,56.60
2019-05-05T19:30:48.136Z,57.40
2019-05-05T19:33:16.631Z,58.50
2019-05-05T19:35:47.274Z,57.80
2019-05-05T19:38:15.799Z,58.00
2019-05-05T19:40:44.508Z,58.50
2019-05-05T19:43:13.977Z,59.00
2019-05-05T19:45:44.643Z,59.40
2019-05-05T19:48:14.782Z,59.50
2019-05-05T19:50:44.610Z,59.30
2019-05-05T19:53:24.304Z,59.50
2019-05-05T19:55:54.596Z,59.60
2019-05-05T19:58:23.608Z,60.10
2019-05-05T20:00:54.631Z,60.30
2019-05-05T20:03:24.161Z,60.20
2019-05-05T20:05:54.084Z,59.60
2019-05-05T20:08:24.070Z,59.90
2019-05-05T20:10:54.233Z,60.30
2019-05-05T20:13:23.144Z,60.50
2019-05-05T20:16:09.568Z,60.50
2019-05-05T20:18:38.030Z,60.80
2019-05-05T20:21:07.317Z,60.70
2019-05-05T20:23:36.091Z,60.80
2019-05-05T20:26:04.595Z,60.90
2019-05-05T20:28:33.906Z,60.70
2019-05-05T20:31:03.735Z,60.70
2019-05-05T20:33:34.068Z,61.00
2019-05-05T20:36:06.777Z,60.90
2019-05-05T20:38:45.393Z,60.90
2019-05-05T20:41:17.888Z,61.40
2019-05-05T20:43:46.570Z,61.50
2019-05-05T20:46:15.361Z,61.60
2019-05-05T20:48:44.863Z,61.70
2019-05-05T20:51:13.919Z,61.90
2019-05-05T20:53:44.770Z,62.00
2019-05-05T20:56:14.943Z,62.40
2019-05-05T20:58:43.963Z,62.40
2019-05-05T21:01:14.035Z,62.50
2019-05-05T21:03:42.674Z,62.70
2019-05-05T21:06:11.184Z,62.60
2019-05-05T21:08:39.621Z,62.90
2019-05-05T21:11:08.026Z,62.80
2019-05-05T21:13:36.477Z,62.60
2019-05-05T21:16:04.899Z,63.10
2019-05-05T21:18:34.669Z,63.30
2019-05-05T21:21:05.055Z,63.40
2019-05-05T21:23:35.155Z,63.30
2019-05-05T21:26:05.222Z,63.70
2019-05-05T21:28:33.747Z,64.30
2019-05-05T21:31:02.173Z,64.30
2019-05-05T21:33:30.662Z,64.40
2019-05-05T21:35:59.112Z,64.60
2019-05-05T21:38:27.539Z,64.70
2019-05-05T21:40:55.979Z,64.50
2019-05-05T21:43:24.412Z,65.00
2019-05-05T21:45:53.756Z,65.30
2019-05-05T21:48:24.238Z,65.70
2019-05-05T21:51:00.059Z,65.40
2019-05-05T21:53:30.134Z,65.40
2019-05-05T21:56:16.807Z,65.60
2019-05-05T21:58:46.803Z,66.20
2019-05-05T22:01:17.153Z,66.60
2019-05-05T22:03:45.643Z,66.70
2019-05-05T22:06:14.653Z,66.70
2019-05-05T22:08:43.269Z,66.60
2019-05-05T22:11:11.704Z,67.00
2019-05-05T22:13:40.210Z,66.80
2019-05-05T22:16:08.735Z,67.20
2019-05-05T22:18:37.160Z,67.30
2019-05-05T22:21:16.246Z,67.40
2019-05-05T22:23:46.315Z,67.50
2019-05-05T22:26:15.188Z,66.90
2019-05-05T22:28:44.639Z,67.00
2019-05-05T22:31:14.170Z,67.10
2019-05-05T22:33:44.668Z,67.00
2019-05-05T22:36:14.088Z,66.40
2019-05-05T22:38:44.478Z,66.70
2019-05-05T22:41:13.294Z,66.50
2019-05-05T22:43:44.313Z,66.20
2019-05-05T22:46:14.156Z,66.40
2019-05-05T22:48:43.989Z,66.90
2019-05-05T22:51:14.377Z,66.60
2019-05-05T22:53:44.124Z,65.90
2019-05-05T22:56:14.665Z,66.20
2019-05-05T22:58:43.892Z,66.60
2019-05-05T23:01:13.643Z,67.40
2019-05-05T23:03:46.606Z,67.40
2019-05-05T23:06:19.688Z,66.70
2019-05-05T23:08:48.117Z,67.10
2019-05-05T23:11:16.565Z,66.50
2019-05-05T23:13:44.987Z,66.80
2019-05-05T23:16:17.994Z,66.60
2019-05-05T23:18:46.453Z,66.50
2019-05-05T23:21:16.509Z,66.80
2019-05-05T23:23:46.591Z,67.30
2019-05-05T23:26:25.647Z,67.40
2019-05-05T23:28:54.066Z,67.00
2019-05-05T23:31:24.121Z,66.90
2019-05-05T23:33:54.713Z,66.90
2019-05-05T23:36:24.196Z,66.90
2019-05-05T23:38:54.800Z,66.10
2019-05-05T23:41:23.872Z,66.20
2019-05-05T23:43:54.489Z,66.90
2019-05-05T23:46:24.135Z,67.60
2019-05-05T23:48:53.690Z,66.90
2019-05-05T23:51:24.192Z,66.50
2019-05-05T23:53:54.866Z,66.90
2019-05-05T23:56:24.037Z,67.50
2019-05-05T23:58:54.884Z,67.40
